Time;durP1;ratioP1;P1;durP2;ratioP2;P2;SDS_P1;SDS_P2;PMS_P1;PMS_P2;Temp;Humidity;BMP_temperature;BMP_pressure;BME280_temperature;BME280_humidity;BME280_pressure;Samples;Min_cycle;Max_cycle;Signal;HPM_P1;HPM_P2
2023/01/03 00:01:18;;;;;;;0.20;0.20;;;6.50;99.90;;;;;;5026159;28;20253;-84
2023/01/03 00:03:44;;;;;;;0.33;0.33;;;6.50;99.90;;;;;;5019304;28;20222;-84
2023/01/03 00:06:25;;;;;;;0.67;0.50;;;6.50;99.90;;;;;;5025320;28;20253;-83
2023/01/03 00:08:53;;;;;;;0.50;0.50;;;6.40;99.90;;;;;;5037388;28;20261;-83
2023/01/03 00:12:22;;;;;;;0.20;0.20;;;6.40;99.90;;;;;;5003300;28;20358;-82
2023/01/03 00:14:09;;;;;;;0.40;0.40;;;6.40;99.90;;;;;;5024062;28;20194;-85
2023/01/03 00:16:35;;;;;;;24.87;0.93;;;6.40;99.90;;;;;;5003767;28;20254;-84
2023/01/03 00:19:12;;;;;;;0.30;0.30;;;6.40;99.90;;;;;;5002928;28;20763;-86
2023/01/03 00:21:38;;;;;;;0.23;0.23;;;6.30;99.90;;;;;;5024904;28;20218;-84
2023/01/03 00:24:05;;;;;;;0.20;0.20;;;6.20;99.90;;;;;;5015038;28;20215;-84
2023/01/03 00:26:31;;;;;;;0.50;0.50;;;6.20;99.90;;;;;;5008728;28;20229;-84
2023/01/03 00:28:57;;;;;;;0.23;0.23;;;6.10;99.90;;;;;;5024320;28;20289;-84
2023/01/03 00:31:23;;;;;;;0.57;0.57;;;6.10;99.90;;;;;;5003172;28;20719;-84
2023/01/03 00:33:49;;;;;;;0.40;0.40;;;6.10;99.90;;;;;;5004348;28;20259;-85
2023/01/03 00:36:14;;;;;;;0.20;0.20;;;6.00;99.90;;;;;;5012440;28;20695;-83
2023/01/03 00:38:40;;;;;;;0.40;0.40;;;6.00;99.90;;;;;;5001262;28;20218;-84
2023/01/03 00:41:11;;;;;;;1.90;0.70;;;6.00;99.90;;;;;;5003337;28;20244;-84
2023/01/03 00:43:39;;;;;;;0.30;0.30;;;6.00;99.90;;;;;;5036950;28;21036;-86
2023/01/03 00:46:06;;;;;;;0.50;0.50;;;6.00;99.90;;;;;;5020177;28;20234;-84
2023/01/03 00:48:32;;;;;;;0.30;0.30;;;6.00;99.90;;;;;;5022452;28;20226;-84
2023/01/03 00:51:09;;;;;;;2.40;0.90;;;6.00;99.90;;;;;;5022725;28;20246;-86
2023/01/03 00:53:37;;;;;;;0.33;0.33;;;6.00;99.90;;;;;;5022487;28;20214;-83
2023/01/03 00:56:05;;;;;;;0.50;0.50;;;6.00;99.90;;;;;;5021947;28;20187;-83
2023/01/03 00:58:32;;;;;;;0.33;0.33;;;6.00;99.90;;;;;;5021581;28;20206;-85
2023/01/03 01:01:19;;;;;;;0.40;0.40;;;6.00;99.90;;;;;;5019924;28;20277;-84
2023/01/03 01:03:48;;;;;;;0.40;0.40;;;6.10;99.90;;;;;;5006971;28;20233;-85
2023/01/03 01:06:15;;;;;;;0.33;0.33;;;6.00;99.90;;;;;;5010487;28;20219;-84
2023/01/03 01:08:42;;;;;;;0.40;0.40;;;6.10;99.90;;;;;;5015726;28;20230;-84
2023/01/03 01:11:09;;;;;;;0.47;0.47;;;6.10;99.90;;;;;;5007471;28;20242;-83
2023/01/03 01:13:35;;;;;;;0.30;0.30;;;6.10;99.90;;;;;;5037100;28;20205;-85
2023/01/03 01:16:06;;;;;;;0.50;0.50;;;6.10;99.90;;;;;;5043285;28;20221;-87
2023/01/03 01:18:33;;;;;;;0.87;0.87;;;6.00;99.90;;;;;;5041288;28;20705;-85
2023/01/03 01:20:58;;;;;;;0.23;0.23;;;6.00;99.90;;;;;;5018013;28;20684;-83
2023/01/03 01:23:24;;;;;;;0.60;0.60;;;6.00;99.90;;;;;;4998390;28;20238;-83
2023/01/03 01:25:50;;;;;;;0.63;0.63;;;6.10;99.90;;;;;;5006317;28;20187;-86
2023/01/03 01:28:16;;;;;;;0.30;0.30;;;6.10;99.90;;;;;;4989339;28;20683;-84
2023/01/03 01:30:42;;;;;;;2.43;0.73;;;6.00;99.90;;;;;;5023755;28;20235;-86
2023/01/03 01:33:08;;;;;;;0.40;0.40;;;6.10;99.90;;;;;;4996957;28;20324;-84
2023/01/03 01:35:33;;;;;;;0.30;0.30;;;6.10;99.90;;;;;;5042253;28;20214;-83
2023/01/03 01:37:59;;;;;;;0.20;0.20;;;6.10;99.90;;;;;;5023752;28;20278;-86
2023/01/03 01:40:25;;;;;;;0.50;0.50;;;6.10;99.90;;;;;;5004104;28;20264;-85
2023/01/03 01:45:37;;;;;;;0.40;0.40;;;6.20;99.90;;;;;;5038728;28;20678;-83
2023/01/03 01:48:10;;;;;;;0.30;0.30;;;6.20;99.90;;;;;;5027773;28;20221;-83
2023/01/03 01:50:42;;;;;;;0.60;0.60;;;6.30;99.90;;;;;;5022442;28;20710;-83
2023/01/03 01:53:19;;;;;;;0.20;0.20;;;6.20;99.90;;;;;;5024922;28;20213;-86
2023/01/03 01:56:05;;;;;;;0.70;0.70;;;6.20;99.90;;;;;;5025653;28;20178;-84
2023/01/03 01:58:35;;;;;;;1.53;0.53;;;6.20;99.90;;;;;;5038304;28;20218;-84
2023/01/03 02:01:08;;;;;;;0.20;0.20;;;6.20;99.90;;;;;;5030592;28;20226;-83
2023/01/03 02:03:33;;;;;;;2.07;0.53;;;6.10;99.90;;;;;;5008712;28;20271;-83
2023/01/03 02:06:01;;;;;;;0.27;0.27;;;6.10;99.90;;;;;;5026173;28;20821;-83
2023/01/03 02:08:27;;;;;;;0.30;0.30;;;6.00;99.90;;;;;;5011806;28;20706;-85
2023/01/03 02:11:09;;;;;;;0.30;0.30;;;5.90;99.90;;;;;;5029290;28;20268;-83
2023/01/03 02:13:40;;;;;;;0.37;0.37;;;5.90;99.90;;;;;;5059484;28;20579;-84
2023/01/03 02:16:30;;;;;;;0.40;0.40;;;5.90;99.90;;;;;;5043462;28;20330;-85
2023/01/03 02:19:17;;;;;;;7.93;0.40;;;5.90;99.90;;;;;;5019933;28;20222;-84
2023/01/03 02:22:06;;;;;;;0.20;0.20;;;5.90;99.90;;;;;;5026367;28;20702;-84
2023/01/03 02:24:56;;;;;;;0.30;0.30;;;5.90;99.90;;;;;;5024970;28;20218;-83
2023/01/03 02:27:47;;;;;;;0.53;0.53;;;5.90;99.90;;;;;;5037505;28;20226;-84
2023/01/03 02:30:34;;;;;;;0.30;0.30;;;5.90;99.90;;;;;;5046290;28;20761;-85
2023/01/03 02:33:27;;;;;;;0.30;0.30;;;5.90;99.90;;;;;;5029018;28;20214;-84
2023/01/03 02:36:18;;;;;;;2.00;0.77;;;5.90;99.90;;;;;;5008974;28;20305;-83
2023/01/03 02:38:55;;;;;;;0.47;0.47;;;5.80;99.90;;;;;;5013542;28;20747;-84
2023/01/03 02:41:45;;;;;;;0.77;0.77;;;5.80;99.90;;;;;;5043346;28;20803;-85
2023/01/03 02:44:25;;;;;;;13.17;1.90;;;5.70;99.90;;;;;;5024779;28;20656;-84
2023/01/03 02:47:05;;;;;;;0.20;0.20;;;5.60;99.90;;;;;;5026495;28;20185;-83
2023/01/03 02:49:43;;;;;;;0.40;0.40;;;5.60;99.90;;;;;;5025452;28;20226;-86
2023/01/03 02:52:16;;;;;;;0.30;0.30;;;5.50;99.90;;;;;;5027399;28;20231;-86
2023/01/03 02:54:56;;;;;;;0.40;0.40;;;5.50;99.90;;;;;;5038910;28;20222;-86
2023/01/03 02:57:46;;;;;;;0.40;0.40;;;5.40;99.90;;;;;;5045559;28;20683;-85
2023/01/03 03:00:16;;;;;;;0.43;0.43;;;5.40;99.90;;;;;;5034285;28;20222;-83
2023/01/03 03:02:50;;;;;;;0.57;0.57;;;5.30;99.90;;;;;;5030982;28;20622;-84
2023/01/03 03:05:31;;;;;;;0.40;0.40;;;5.30;99.90;;;;;;5045584;28;20182;-84
2023/01/03 03:07:57;;;;;;;3.50;1.57;;;5.30;99.90;;;;;;5046609;28;20181;-87
2023/01/03 03:13:44;;;;;;;0.20;0.20;;;5.10;99.90;;;;;;5026007;28;20241;-85
2023/01/03 03:25:43;;;;;;;0.20;0.20;;;5.10;99.90;;;;;;5025966;28;20218;-85
2023/01/03 03:31:24;;;;;;;0.50;0.50;;;4.90;99.90;;;;;;5045884;28;20230;-84
2023/01/03 03:34:08;;;;;;;0.40;0.40;;;4.80;99.90;;;;;;5012286;28;20617;-83
2023/01/03 03:37:02;;;;;;;0.20;0.20;;;4.80;99.90;;;;;;5007858;28;20218;-84
2023/01/03 03:45:18;;;;;;;0.20;0.20;;;4.90;99.90;;;;;;5036050;28;20230;-84
2023/01/03 03:48:06;;;;;;;0.30;0.30;;;4.80;99.90;;;;;;5024858;28;20301;-84
2023/01/03 03:50:31;;;;;;;0.30;0.30;;;4.80;99.90;;;;;;5028212;28;20234;-83
2023/01/03 03:53:00;;;;;;;0.50;0.50;;;4.80;99.90;;;;;;5017458;28;20198;-84
2023/01/03 03:55:46;;;;;;;0.30;0.30;;;4.80;99.90;;;;;;5027095;28;20221;-84
2023/01/03 03:58:17;;;;;;;0.30;0.30;;;4.80;99.90;;;;;;5041780;28;20265;-84
2023/01/03 04:00:46;;;;;;;0.97;0.87;;;4.70;99.90;;;;;;5007084;28;20214;-83
2023/01/03 04:03:14;;;;;;;0.40;0.40;;;4.70;99.90;;;;;;5016691;28;20217;-83
2023/01/03 04:05:45;;;;;;;2.50;0.77;;;4.70;99.90;;;;;;5044462;28;20214;-85
2023/01/03 04:08:11;;;;;;;0.30;0.30;;;4.60;99.90;;;;;;5026346;28;20713;-83
2023/01/03 04:10:37;;;;;;;0.27;0.27;;;4.60;99.90;;;;;;5007209;28;20206;-83
2023/01/03 04:13:03;;;;;;;0.67;0.67;;;4.60;99.90;;;;;;5022912;28;20276;-83
2023/01/03 04:15:29;;;;;;;0.57;0.57;;;4.60;99.90;;;;;;5044513;28;20257;-88
2023/01/03 04:17:54;;;;;;;0.37;0.37;;;4.50;99.90;;;;;;5002476;28;20254;-85
2023/01/03 04:20:20;;;;;;;0.33;0.33;;;4.50;99.90;;;;;;4989862;28;20589;-84
2023/01/03 04:22:46;;;;;;;0.40;0.40;;;4.40;99.90;;;;;;5006860;28;20194;-84
2023/01/03 04:25:11;;;;;;;0.50;0.50;;;4.40;99.90;;;;;;5023892;28;20256;-84
2023/01/03 04:27:37;;;;;;;0.40;0.40;;;4.30;99.90;;;;;;4996930;28;20223;-85
2023/01/03 04:30:04;;;;;;;1.20;0.97;;;4.30;99.90;;;;;;5014978;28;20340;-84
2023/01/03 04:32:30;;;;;;;0.37;0.37;;;4.30;99.90;;;;;;5026342;28;20224;-83
2023/01/03 04:34:55;;;;;;;0.30;0.30;;;4.30;99.90;;;;;;5027750;28;20948;-83
2023/01/03 04:37:21;;;;;;;0.43;0.43;;;4.40;99.90;;;;;;5006283;28;21066;-83
2023/01/03 04:39:47;;;;;;;0.40;0.40;;;4.40;99.90;;;;;;5006377;28;20309;-83
2023/01/03 04:44:57;;;;;;;0.50;0.50;;;4.50;99.90;;;;;;5030857;28;20345;-83
2023/01/03 04:47:23;;;;;;;0.90;0.90;;;4.50;99.90;;;;;;5007729;28;20190;-85
2023/01/03 04:49:48;;;;;;;0.70;0.60;;;4.60;99.90;;;;;;5009736;28;20225;-83
2023/01/03 04:52:15;;;;;;;2.10;1.07;;;4.60;99.90;;;;;;5007255;28;20222;-84
2023/01/03 04:54:42;;;;;;;0.47;0.47;;;4.50;99.90;;;;;;5006286;28;20230;-84
2023/01/03 04:57:08;;;;;;;0.30;0.30;;;4.50;99.90;;;;;;5014897;28;20687;-83
2023/01/03 04:59:35;;;;;;;0.30;0.30;;;4.50;99.90;;;;;;5025459;28;20611;-84
2023/01/03 05:02:01;;;;;;;0.30;0.30;;;4.60;99.90;;;;;;5026589;28;20198;-86
2023/01/03 05:04:28;;;;;;;1.73;0.73;;;4.60;99.90;;;;;;5005915;28;20583;-84
2023/01/03 05:06:54;;;;;;;0.87;0.50;;;4.60;99.90;;;;;;5024102;28;20219;-85
2023/01/03 05:09:20;;;;;;;0.60;0.60;;;4.60;99.90;;;;;;4998553;28;20234;-86
2023/01/03 05:11:46;;;;;;;1.13;1.03;;;4.60;99.90;;;;;;5041619;28;20234;-83
2023/01/03 05:14:12;;;;;;;0.50;0.50;;;4.60;99.90;;;;;;5022779;28;20248;-84
2023/01/03 05:16:37;;;;;;;0.80;0.80;;;4.70;99.90;;;;;;5022023;28;20206;-85
2023/01/03 05:19:03;;;;;;;0.67;0.60;;;4.70;99.90;;;;;;4988139;28;20742;-84
2023/01/03 05:27:01;;;;;;;0.40;0.40;;;4.80;99.90;;;;;;5030721;28;20237;-84
2023/01/03 05:29:28;;;;;;;2.27;1.60;;;4.90;99.90;;;;;;5025487;28;20287;-84
2023/01/03 05:31:54;;;;;;;2.77;0.90;;;4.90;99.90;;;;;;5033767;28;20568;-84
2023/01/03 05:34:20;;;;;;;0.73;0.73;;;4.90;99.90;;;;;;5006528;28;20222;-85
2023/01/03 05:36:46;;;;;;;0.60;0.60;;;4.90;99.90;;;;;;5005798;28;21034;-85
2023/01/03 05:39:12;;;;;;;0.60;0.60;;;4.90;99.90;;;;;;5013901;28;20255;-83
2023/01/03 05:44:22;;;;;;;0.43;0.43;;;4.80;99.90;;;;;;5023310;28;20217;-86
2023/01/03 05:46:48;;;;;;;1.10;1.10;;;4.70;99.90;;;;;;5005613;28;20539;-85
2023/01/03 05:49:14;;;;;;;0.67;0.67;;;4.70;99.90;;;;;;5039702;28;20233;-84
2023/01/03 05:51:39;;;;;;;0.70;0.70;;;4.70;99.90;;;;;;5041987;28;20275;-83
2023/01/03 05:54:06;;;;;;;0.67;0.67;;;4.60;99.90;;;;;;4998300;28;20246;-84
2023/01/03 05:56:32;;;;;;;1.23;1.17;;;4.50;99.90;;;;;;5003726;28;20660;-84
2023/01/03 05:58:59;;;;;;;0.70;0.70;;;4.40;99.90;;;;;;5005997;28;20183;-84
2023/01/03 06:01:27;;;;;;;0.80;0.80;;;4.30;99.90;;;;;;5024303;28;20278;-85
2023/01/03 06:03:53;;;;;;;0.90;0.90;;;4.20;99.90;;;;;;5043466;28;20312;-88
2023/01/03 06:06:18;;;;;;;1.23;0.97;;;4.20;99.90;;;;;;4988878;28;20229;-83
2023/01/03 06:08:44;;;;;;;0.87;0.87;;;4.10;99.90;;;;;;4989693;28;20500;-82
2023/01/03 06:11:13;;;;;;;1.77;1.30;;;4.10;99.90;;;;;;5007094;28;20312;-83
2023/01/03 06:13:39;;;;;;;0.77;0.77;;;4.00;99.90;;;;;;5041837;28;20202;-81
2023/01/03 06:18:52;;;;;;;1.17;1.00;;;3.90;99.90;;;;;;5021178;28;20267;-83
2023/01/03 06:21:18;;;;;;;0.70;0.70;;;3.90;99.90;;;;;;5013749;28;20257;-82
2023/01/03 06:23:46;;;;;;;0.67;0.67;;;3.80;99.90;;;;;;5022842;28;20236;-81
2023/01/03 06:26:14;;;;;;;1.03;0.97;;;3.70;99.90;;;;;;5021790;28;20271;-81
2023/01/03 06:28:40;;;;;;;0.20;0.20;;;3.70;99.90;;;;;;5023541;28;20218;-82
2023/01/03 06:31:06;;;;;;;0.60;0.60;;;3.60;99.90;;;;;;5026229;28;20368;-83
2023/01/03 06:33:32;;;;;;;1.03;0.93;;;3.50;99.90;;;;;;5036961;28;20981;-83
2023/01/03 06:36:04;;;;;;;4.07;3.77;;;3.40;99.90;;;;;;5028550;28;20217;-84
2023/01/03 06:38:31;;;;;;;2.63;2.43;;;3.40;99.90;;;;;;5023567;28;20265;-83
2023/01/03 06:40:56;;;;;;;1.80;1.47;;;3.30;99.90;;;;;;5007181;28;20328;-83
2023/01/03 06:43:22;;;;;;;1.40;1.30;;;3.30;99.90;;;;;;5025152;28;20300;-85
2023/01/03 06:54:06;;;;;;;1.30;1.23;;;3.10;99.90;;;;;;5045637;28;20241;-85
2023/01/03 06:56:32;;;;;;;2.13;1.97;;;3.20;99.90;;;;;;5040626;28;20215;-82
2023/01/03 06:58:57;;;;;;;1.70;1.60;;;3.10;99.90;;;;;;5008285;28;20191;-84
2023/01/03 07:01:23;;;;;;;1.33;1.23;;;3.10;99.90;;;;;;4991112;28;20218;-81
2023/01/03 07:03:49;;;;;;;1.73;1.63;;;3.10;99.90;;;;;;4991116;28;20252;-83
2023/01/03 07:06:15;;;;;;;2.53;2.37;;;3.20;99.90;;;;;;5017723;28;20781;-83
2023/01/03 07:08:41;;;;;;;0.77;0.77;;;3.10;99.90;;;;;;5045314;28;20222;-86
2023/01/03 07:11:06;;;;;;;0.80;0.80;;;3.10;99.90;;;;;;5026630;28;20728;-85
2023/01/03 07:16:18;;;;;;;0.53;0.53;;;3.20;99.90;;;;;;5008889;28;20218;-82
2023/01/03 07:18:44;;;;;;;1.67;1.60;;;3.30;99.90;;;;;;5020097;28;20237;-88
2023/01/03 07:21:11;;;;;;;4.83;3.13;;;3.30;99.90;;;;;;5036631;28;20232;-90
2023/01/03 07:23:37;;;;;;;2.20;2.10;;;3.40;99.90;;;;;;4992358;28;20218;-88
2023/01/03 07:26:04;;;;;;;7.00;2.47;;;3.50;99.90;;;;;;5007533;28;20652;-85
2023/01/03 07:28:30;;;;;;;2.10;1.90;;;3.50;99.90;;;;;;5027815;28;20224;-86
2023/01/03 07:31:04;;;;;;;5.50;1.93;;;3.60;99.90;;;;;;5012624;28;20227;-85
2023/01/03 07:33:31;;;;;;;1.83;1.70;;;3.60;99.90;;;;;;5052358;28;20209;-86
2023/01/03 07:36:05;;;;;;;2.83;2.63;;;3.70;99.90;;;;;;5028117;28;20214;-87
2023/01/03 07:38:31;;;;;;;1.80;1.70;;;3.70;99.90;;;;;;5041585;28;20241;-87
2023/01/03 07:41:03;;;;;;;5.83;3.03;;;3.70;99.90;;;;;;5025204;28;20229;-83
2023/01/03 07:43:37;;;;;;;3.00;2.80;;;3.70;99.90;;;;;;5008896;28;20214;-79
2023/01/03 07:46:23;;;;;;;3.57;3.27;;;3.70;99.90;;;;;;5009552;28;20240;-83
2023/01/03 07:48:55;;;;;;;3.57;3.33;;;3.70;99.90;;;;;;5046749;28;20702;-81
2023/01/03 07:51:21;;;;;;;4.97;4.13;;;3.70;99.90;;;;;;4998836;28;20262;-82
2023/01/03 07:53:52;;;;;;;2.53;2.20;;;3.70;99.90;;;;;;5006274;28;20215;-83
2023/01/03 07:56:18;;;;;;;3.10;2.90;;;3.70;99.90;;;;;;5026099;28;20647;-82
2023/01/03 07:58:45;;;;;;;1.53;1.10;;;3.70;99.90;;;;;;5044530;28;20592;-82
2023/01/03 08:01:13;;;;;;;2.03;1.90;;;3.80;99.90;;;;;;5025265;28;20226;-84
2023/01/03 08:03:39;;;;;;;9.93;2.80;;;3.60;99.90;;;;;;5030367;28;20260;-83
2023/01/03 08:06:11;;;;;;;2.07;1.93;;;3.60;99.90;;;;;;5005070;28;20543;-83
2023/01/03 08:08:37;;;;;;;1.33;1.23;;;3.50;99.90;;;;;;5003544;28;20214;-82
2023/01/03 08:13:48;;;;;;;0.97;0.97;;;2.80;99.90;;;;;;5042196;28;21127;-85
2023/01/03 08:16:17;;;;;;;2.20;1.60;;;2.70;99.90;;;;;;5008194;28;20218;-82
2023/01/03 08:18:44;;;;;;;4.17;3.30;;;2.70;99.90;;;;;;5011904;28;20316;-84
2023/01/03 08:21:13;;;;;;;3.50;2.40;;;2.70;99.90;;;;;;5041913;28;20478;-83
2023/01/03 08:23:39;;;;;;;2.13;2.03;;;2.70;99.90;;;;;;5042617;28;20218;-83
2023/01/03 08:26:12;;;;;;;2.00;1.90;;;2.80;99.90;;;;;;5043255;28;20207;-82
2023/01/03 08:28:39;;;;;;;6.60;3.03;;;2.90;99.90;;;;;;5044104;28;20185;-85
2023/01/03 08:31:11;;;;;;;2.47;2.30;;;2.90;99.90;;;;;;5007836;28;20248;-84
2023/01/03 08:33:44;;;;;;;2.97;2.20;;;3.10;99.90;;;;;;5024808;28;21043;-86
2023/01/03 08:36:12;;;;;;;5.80;3.00;;;3.20;99.90;;;;;;5043515;28;20213;-86
2023/01/03 08:38:45;;;;;;;1.80;1.53;;;3.20;99.90;;;;;;5024921;28;20309;-83
2023/01/03 08:41:14;;;;;;;2.73;1.87;;;3.30;99.90;;;;;;5058993;28;20186;-82
2023/01/03 08:43:45;;;;;;;3.67;3.43;;;3.30;99.90;;;;;;5042072;28;20174;-83
2023/01/03 08:46:12;;;;;;;4.57;4.17;;;3.30;99.90;;;;;;5041386;28;20229;-83
2023/01/03 08:48:39;;;;;;;5.03;4.53;;;3.40;99.90;;;;;;5042923;28;20575;-82
2023/01/03 08:51:25;;;;;;;6.07;4.23;;;3.40;99.90;;;;;;5024600;28;20230;-86
2023/01/03 08:53:52;;;;;;;4.30;4.00;;;3.60;99.90;;;;;;5042276;28;20228;-81
2023/01/03 08:56:18;;;;;;;4.27;3.87;;;3.70;99.90;;;;;;5041155;28;20197;-85
2023/01/03 08:58:45;;;;;;;2.77;2.43;;;3.70;99.90;;;;;;5043313;28;20472;-86
2023/01/03 09:01:11;;;;;;;2.27;1.87;;;3.70;99.90;;;;;;5007665;28;20678;-84
2023/01/03 09:03:37;;;;;;;2.10;1.57;;;3.80;99.90;;;;;;5042642;28;20229;-87
2023/01/03 09:06:03;;;;;;;2.97;2.87;;;3.80;99.90;;;;;;5024975;28;20214;-83
2023/01/03 09:08:30;;;;;;;4.53;3.50;;;3.80;99.90;;;;;;5024624;28;20287;-83
2023/01/03 09:10:57;;;;;;;3.40;2.47;;;3.70;99.90;;;;;;5042329;28;20249;-84
2023/01/03 09:13:23;;;;;;;6.03;4.30;;;3.70;99.90;;;;;;5025417;28;20230;-84
2023/01/03 09:15:49;;;;;;;4.17;3.07;;;3.80;99.90;;;;;;5025127;28;20233;-83
2023/01/03 09:18:15;;;;;;;6.47;3.63;;;3.80;99.90;;;;;;5058006;28;20610;-84
2023/01/03 09:20:41;;;;;;;2.93;2.73;;;3.90;99.90;;;;;;5006481;28;20248;-84
2023/01/03 09:23:06;;;;;;;3.30;3.00;;;3.90;99.90;;;;;;5040511;28;20235;-84
2023/01/03 09:25:32;;;;;;;8.10;2.57;;;4.00;99.90;;;;;;5007126;28;20223;-86
2023/01/03 09:27:58;;;;;;;3.87;3.57;;;4.00;99.90;;;;;;5056018;28;20691;-83
2023/01/03 09:30:24;;;;;;;4.70;4.30;;;3.90;99.90;;;;;;5022040;28;20855;-87
2023/01/03 09:32:50;;;;;;;3.03;2.53;;;3.90;99.90;;;;;;5055087;28;20266;-84
2023/01/03 09:35:16;;;;;;;7.20;2.63;;;3.80;99.90;;;;;;5023429;28;20263;-84
2023/01/03 09:37:42;;;;;;;4.30;3.90;;;3.80;99.90;;;;;;5023619;28;20194;-83
2023/01/03 09:40:08;;;;;;;1.83;1.73;;;3.70;99.90;;;;;;5023176;28;20674;-85
2023/01/03 09:45:31;;;;;;;1.50;1.50;;;3.60;99.90;;;;;;5042700;28;20214;-84
2023/01/03 09:47:59;;;;;;;2.30;2.10;;;3.30;99.90;;;;;;5040450;28;20296;-83
2023/01/03 09:50:28;;;;;;;2.00;1.07;;;3.20;99.90;;;;;;5021685;28;20284;-84
2023/01/03 10:04:50;;;;;;;1.63;1.53;;;3.10;99.90;;;;;;5043703;28;20217;-83
2023/01/03 10:07:26;;;;;;;1.87;1.77;;;3.20;99.90;;;;;;5058942;28;20249;-84
2023/01/03 10:10:23;;;;;;;1.63;1.53;;;3.30;99.90;;;;;;5026522;28;20801;-85
2023/01/03 10:12:55;;;;;;;2.00;1.90;;;3.20;99.90;;;;;;5026705;28;20326;-86
2023/01/03 10:15:41;;;;;;;0.87;0.87;;;3.20;99.90;;;;;;5059359;28;20303;-84
2023/01/03 10:18:29;;;;;;;2.93;2.73;;;3.20;99.90;;;;;;5026599;28;20628;-85
2023/01/03 10:21:07;;;;;;;3.60;3.03;;;3.20;99.90;;;;;;5043218;28;20226;-82
2023/01/03 10:23:34;;;;;;;1.10;1.10;;;3.30;99.90;;;;;;5027683;28;20241;-82
2023/01/03 10:26:00;;;;;;;2.03;1.83;;;3.30;99.90;;;;;;5043856;28;20193;-81
2023/01/03 10:28:39;;;;;;;0.47;0.47;;;3.30;99.90;;;;;;5045368;28;20757;-86
2023/01/03 10:31:09;;;;;;;2.03;1.93;;;3.30;99.90;;;;;;5045522;28;20248;-83
2023/01/03 10:33:39;;;;;;;3.07;1.13;;;3.30;99.90;;;;;;5060223;28;20290;-83
2023/01/03 10:36:06;;;;;;;2.03;1.93;;;3.40;99.90;;;;;;5045510;28;20218;-82
2023/01/03 10:38:33;;;;;;;2.03;1.93;;;3.50;99.90;;;;;;5028067;28;20344;-83
2023/01/03 10:41:01;;;;;;;1.67;1.57;;;3.60;99.90;;;;;;5045073;28;20718;-82
2023/01/03 10:43:31;;;;;;;2.40;2.30;;;3.60;99.90;;;;;;5044386;28;20209;-81
2023/01/03 10:46:21;;;;;;;1.47;1.43;;;3.70;99.90;;;;;;5025283;28;20206;-81
2023/01/03 10:48:49;;;;;;;2.20;1.77;;;3.90;99.90;;;;;;5037041;28;20214;-81
2023/01/03 10:51:34;;;;;;;3.60;3.03;;;4.00;99.90;;;;;;5044046;28;20733;-80
2023/01/03 10:54:28;;;;;;;5.20;3.33;;;4.10;99.90;;;;;;5045706;28;20226;-84
2023/01/03 10:56:54;;;;;;;1.20;1.20;;;4.20;99.90;;;;;;5060206;28;20295;-82
2023/01/03 10:59:24;;;;;;;1.93;1.87;;;4.40;99.90;;;;;;5061309;28;20674;-83
2023/01/03 11:02:01;;;;;;;1.43;1.33;;;4.50;99.90;;;;;;5043525;28;20331;-82
2023/01/03 11:04:29;;;;;;;6.17;3.83;;;4.60;99.90;;;;;;5044584;28;20228;-82
2023/01/03 11:07:07;;;;;;;12.03;2.67;;;4.80;99.90;;;;;;5027010;28;20289;-84
2023/01/03 11:09:42;;;;;;;2.97;2.27;;;4.90;99.90;;;;;;5045352;28;20246;-82
2023/01/03 11:12:18;;;;;;;4.67;4.07;;;4.80;99.90;;;;;;5045025;28;20320;-82
2023/01/03 11:14:55;;;;;;;4.70;4.10;;;4.90;99.90;;;;;;5044274;28;20303;-84
2023/01/03 11:17:22;;;;;;;4.00;3.20;;;5.00;99.90;;;;;;5016803;28;20189;-82
2023/01/03 11:19:50;;;;;;;3.27;1.20;;;4.90;99.90;;;;;;5027179;28;20190;-82
2023/01/03 11:22:40;;;;;;;3.77;3.37;;;5.00;99.90;;;;;;5044584;28;20701;-85
2023/01/03 11:25:23;;;;;;;4.00;3.13;;;5.10;99.90;;;;;;5044306;28;20225;-85
2023/01/03 11:28:00;;;;;;;6.97;4.13;;;5.10;99.90;;;;;;5043313;28;20263;-84
2023/01/03 11:31:01;;;;;;;2.47;2.33;;;5.20;99.90;;;;;;5043334;28;20307;-81
2023/01/03 11:33:48;;;;;;;4.47;3.50;;;5.30;99.90;;;;;;5004645;28;20330;-84
2023/01/03 11:36:25;;;;;;;3.57;3.27;;;5.50;99.90;;;;;;5045008;28;20220;-82
2023/01/03 11:39:07;;;;;;;6.87;6.20;;;5.50;99.90;;;;;;5044706;28;20217;-83
2023/01/03 11:41:38;;;;;;;4.73;4.40;;;5.50;99.90;;;;;;5044531;28;20702;-83
2023/01/03 11:44:41;;;;;;;4.13;3.70;;;5.70;99.90;;;;;;5027030;28;20182;-87
2023/01/03 11:47:28;;;;;;;4.37;4.07;;;5.70;99.90;;;;;;5042057;28;20190;-82
2023/01/03 11:49:57;;;;;;;4.13;3.13;;;5.80;99.90;;;;;;5042648;28;20232;-82
2023/01/03 11:52:41;;;;;;;17.30;5.70;;;5.90;99.90;;;;;;5012039;28;20465;-80
2023/01/03 11:55:25;;;;;;;7.83;6.50;;;6.00;99.90;;;;;;5042495;28;20224;-81
2023/01/03 11:58:15;;;;;;;4.93;3.53;;;6.00;99.90;;;;;;5042440;28;20226;-81
2023/01/03 12:00:57;;;;;;;11.80;6.97;;;6.20;99.90;;;;;;5041186;28;20619;-80
2023/01/03 12:03:44;;;;;;;9.20;5.33;;;6.30;99.90;;;;;;5024500;28;20696;-82
2023/01/03 12:06:18;;;;;;;12.00;6.47;;;6.40;99.90;;;;;;5040620;28;20955;-80
2023/01/03 12:08:51;;;;;;;5.87;5.37;;;6.40;99.90;;;;;;5041520;28;20280;-84
2023/01/03 12:11:35;;;;;;;5.27;4.30;;;6.50;99.90;;;;;;5040923;28;20563;-80
2023/01/03 12:14:14;;;;;;;8.53;4.20;;;6.50;99.90;;;;;;5041876;28;20198;-81
2023/01/03 12:17:07;;;;;;;15.60;8.33;;;6.60;99.90;;;;;;5041170;28;20383;-81
2023/01/03 12:19:41;;;;;;;7.30;5.37;;;6.60;99.90;;;;;;5003536;28;20550;-80
2023/01/03 12:22:32;;;;;;;9.10;6.50;;;6.70;99.90;;;;;;5037609;28;20239;-81
2023/01/03 12:25:36;;;;;;;3.57;3.20;;;6.70;99.90;;;;;;5040815;28;20228;-81
2023/01/03 12:28:09;;;;;;;9.00;5.43;;;6.80;99.90;;;;;;5007137;28;20311;-82
2023/01/03 12:30:57;;;;;;;4.90;3.13;;;6.80;99.90;;;;;;5016271;28;20287;-84
2023/01/03 12:33:25;;;;;;;7.77;7.07;;;6.80;99.90;;;;;;5057330;28;20416;-83
2023/01/03 12:36:14;;;;;;;7.23;5.90;;;6.80;99.90;;;;;;5023697;28;20574;-81
2023/01/03 12:38:47;;;;;;;12.20;7.20;;;6.90;99.90;;;;;;5043238;28;20217;-83
2023/01/03 12:41:29;;;;;;;8.20;7.47;;;6.90;99.90;;;;;;5042830;28;20186;-82
2023/01/03 12:44:02;;;;;;;11.07;7.57;;;7.00;99.90;;;;;;5041528;28;20186;-81
2023/01/03 12:46:33;;;;;;;9.47;6.73;;;7.00;99.90;;;;;;5023617;28;20233;-83
2023/01/03 12:49:10;;;;;;;6.20;3.47;;;7.10;99.90;;;;;;5057411;28;20257;-82
2023/01/03 12:51:39;;;;;;;5.77;5.23;;;7.10;99.90;;;;;;5042979;28;20606;-83
2023/01/03 12:54:29;;;;;;;9.10;6.10;;;7.10;99.90;;;;;;5041600;28;20214;-82
2023/01/03 12:57:10;;;;;;;10.10;4.53;;;7.10;99.90;;;;;;5040286;28;20744;-83
2023/01/03 13:00:00;;;;;;;12.43;6.50;;;7.20;99.90;;;;;;5040147;28;20217;-83
2023/01/03 13:02:28;;;;;;;6.93;5.47;;;7.30;99.90;;;;;;5038002;28;20674;-81
2023/01/03 13:05:10;;;;;;;6.17;5.07;;;7.30;99.90;;;;;;5021905;28;20190;-82
2023/01/03 13:07:38;;;;;;;7.10;5.13;;;7.30;99.90;;;;;;5040289;28;20201;-81
2023/01/03 13:10:13;;;;;;;6.10;5.33;;;7.30;99.90;;;;;;5006149;28;20230;-81
2023/01/03 13:12:43;;;;;;;7.53;5.83;;;7.30;99.90;;;;;;5039935;28;20282;-81
2023/01/03 13:15:38;;;;;;;7.03;5.10;;;7.40;99.90;;;;;;5040170;28;20324;-81
2023/01/03 13:18:22;;;;;;;6.23;4.60;;;7.50;99.90;;;;;;5038819;28;20283;-81
2023/01/03 13:20:50;;;;;;;5.83;4.83;;;7.50;99.90;;;;;;5040929;28;20230;-83
2023/01/03 13:23:29;;;;;;;7.70;5.77;;;7.50;99.90;;;;;;5030511;28;20186;-81
2023/01/03 13:26:04;;;;;;;7.30;5.03;;;7.50;99.90;;;;;;5041900;28;20182;-81
2023/01/03 13:28:34;;;;;;;6.90;5.00;;;7.50;99.90;;;;;;5023662;28;20220;-81
2023/01/03 13:31:18;;;;;;;4.73;4.33;;;7.50;99.90;;;;;;5039430;28;20589;-81
2023/01/03 13:34:08;;;;;;;9.33;5.20;;;7.50;99.90;;;;;;5056533;28;20218;-86
2023/01/03 13:37:05;;;;;;;7.87;4.47;;;7.60;99.90;;;;;;5024427;28;20226;-81
2023/01/03 13:39:49;;;;;;;6.40;4.77;;;7.60;99.90;;;;;;5046525;28;20252;-83
2023/01/03 13:42:33;;;;;;;5.20;4.73;;;7.60;99.90;;;;;;5046499;28;20296;-82
2023/01/03 13:45:14;;;;;;;7.23;6.40;;;7.60;99.90;;;;;;5034866;28;20217;-82
2023/01/03 13:47:44;;;;;;;15.90;6.37;;;7.60;99.90;;;;;;5039063;28;20218;-83
2023/01/03 13:50:32;;;;;;;7.30;6.07;;;7.70;99.90;;;;;;5008221;28;20248;-81
2023/01/03 13:53:05;;;;;;;7.20;6.53;;;7.70;99.90;;;;;;5008769;28;20171;-81
2023/01/03 13:55:37;;;;;;;6.70;5.50;;;7.80;99.90;;;;;;5045183;28;20245;-82
2023/01/03 13:58:50;;;;;;;5.53;3.40;;;7.80;99.90;;;;;;5043562;28;20232;-81
2023/01/03 14:01:19;;;;;;;6.97;6.10;;;7.80;99.90;;;;;;4980156;28;21286;-81
2023/01/03 14:04:08;;;;;;;7.33;6.53;;;7.90;99.90;;;;;;5034877;28;20740;-82
2023/01/03 14:06:48;;;;;;;9.73;5.33;;;7.90;99.90;;;;;;5044977;28;20283;-81
2023/01/03 14:09:32;;;;;;;4.70;4.23;;;7.90;99.90;;;;;;5044017;28;20262;-81
2023/01/03 14:12:18;;;;;;;9.33;5.80;;;7.90;99.90;;;;;;5043936;28;20240;-84
2023/01/03 14:14:57;;;;;;;8.33;6.00;;;8.00;99.90;;;;;;5045778;28;20230;-82
2023/01/03 14:17:31;;;;;;;7.57;5.20;;;8.00;99.90;;;;;;5036335;28;20213;-82
2023/01/03 14:20:04;;;;;;;6.10;5.50;;;8.00;99.90;;;;;;5045804;28;20588;-82
2023/01/03 14:22:40;;;;;;;9.20;5.27;;;8.00;99.90;;;;;;5018541;28;20284;-82
2023/01/03 14:25:07;;;;;;;5.83;3.77;;;8.10;99.90;;;;;;5035062;28;20586;-85
2023/01/03 14:27:39;;;;;;;7.20;4.43;;;8.10;99.90;;;;;;5016547;28;20228;-83
2023/01/03 14:30:27;;;;;;;6.10;5.57;;;8.10;99.90;;;;;;5053590;28;20238;-82
2023/01/03 14:32:53;;;;;;;15.00;6.97;;;8.20;99.90;;;;;;5026481;28;20220;-83